createdAt,value
2018-04-14T00:05:36.969Z,99960.70
2018-04-14T00:08:05.326Z,99961.42
2018-04-14T00:10:32.853Z,99964.09
2018-04-14T00:13:00.350Z,99969.73
2018-04-14T00:15:27.904Z,99970.77
2018-04-14T00:17:55.381Z,99974.98
2018-04-14T00:20:22.885Z,99986.82
2018-04-14T00:22:50.414Z,99978.10
2018-04-14T00:25:18.888Z,99998.78
2018-04-14T00:27:46.641Z,100002.16
2018-04-14T00:30:14.907Z,100013.70
2018-04-14T00:32:42.443Z,100009.75
2018-04-14T00:35:10.589Z,100018.00
2018-04-14T00:37:38.147Z,100017.43
2018-04-14T00:40:05.781Z,100016.58
2018-04-14T00:42:33.437Z,100024.40
2018-04-14T00:45:01.336Z,100032.77
2018-04-14T00:47:28.818Z,100036.72
2018-04-14T00:49:56.357Z,100044.71
2018-04-14T00:52:43.159Z,100048.13
2018-04-14T00:55:12.032Z,100046.45
2018-04-14T00:57:39.613Z,100046.95
2018-04-14T01:00:08.042Z,100057.05
2018-04-14T01:02:41.533Z,100065.10
2018-04-14T01:05:09.199Z,100069.95
2018-04-14T01:07:36.871Z,100066.03
2018-04-14T01:10:04.388Z,100076.62
2018-04-14T01:12:36.921Z,100070.69
2018-04-14T01:15:04.382Z,100087.08
2018-04-14T01:17:31.871Z,100089.55
2018-04-14T01:19:59.320Z,100099.07
2018-04-14T01:25:19.691Z,100103.39
2018-04-14T01:27:47.140Z,100110.91
2018-04-14T01:30:14.596Z,100125.72
2018-04-14T01:32:42.059Z,100120.91
2018-04-14T01:35:09.528Z,100116.81
2018-04-14T01:37:37.006Z,100127.09
2018-04-14T01:40:04.527Z,100118.30
2018-04-14T01:42:32.164Z,100120.44
2018-04-14T01:44:59.908Z,100129.11
2018-04-14T01:47:27.444Z,100137.09
2018-04-14T01:49:55.608Z,100139.48
2018-04-14T01:55:15.474Z,100142.89
2018-04-14T01:57:43.810Z,100138.94
2018-04-14T02:00:11.363Z,100144.12
2018-04-14T02:02:38.851Z,100148.67
2018-04-14T02:05:06.335Z,100154.00
2018-04-14T02:07:33.796Z,100153.75
2018-04-14T02:10:01.557Z,100157.41
2018-04-14T02:12:38.607Z,100158.08
2018-04-14T02:15:06.096Z,100159.87
2018-04-14T02:17:33.567Z,100168.88
2018-04-14T02:20:01.017Z,100169.59
2018-04-14T02:22:28.853Z,100169.67
2018-04-14T02:24:56.303Z,100178.74
2018-04-14T02:27:23.784Z,100183.86
2018-04-14T02:29:51.201Z,100186.92
2018-04-14T02:32:18.658Z,100182.53
2018-04-14T02:34:46.229Z,100182.78
2018-04-14T02:37:13.789Z,100191.85
2018-04-14T02:39:41.338Z,100186.15
2018-04-14T02:42:08.789Z,100193.19
2018-04-14T02:44:36.317Z,100186.00
2018-04-14T02:47:03.827Z,100193.44
2018-04-14T02:49:31.323Z,100194.58
2018-04-14T02:51:58.777Z,100200.84
2018-04-14T02:54:26.295Z,100204.02
2018-04-14T02:56:53.738Z,100203.72
2018-04-14T02:59:21.265Z,100215.70
2018-04-14T03:01:48.711Z,100210.27
2018-04-14T03:04:16.187Z,100219.41
2018-04-14T03:06:43.651Z,100213.70
2018-04-14T03:09:11.163Z,100221.73
2018-04-14T03:11:38.667Z,100217.14
2018-04-14T03:14:06.125Z,100220.82
2018-04-14T03:16:33.601Z,100221.48
2018-04-14T03:19:01.112Z,100228.81
2018-04-14T03:21:28.571Z,100232.61
2018-04-14T03:23:56.476Z,100236.73
2018-04-14T03:26:23.959Z,100235.71
2018-04-14T03:28:52.303Z,100239.30
2018-04-14T03:31:19.854Z,100240.41
2018-04-14T03:33:47.405Z,100249.28
2018-04-14T03:36:14.951Z,100248.25
2018-04-14T03:38:42.933Z,100246.77
2018-04-14T03:41:10.503Z,100257.42
2018-04-14T03:43:37.969Z,100259.28
2018-04-14T03:46:06.323Z,100260.77
2018-04-14T03:48:33.885Z,100261.13
2018-04-14T03:51:01.370Z,100260.49
2018-04-14T03:53:28.887Z,100269.02
2018-04-14T03:55:56.784Z,100268.83
2018-04-14T03:58:24.301Z,100275.23
2018-04-14T04:00:51.789Z,100273.81
2018-04-14T04:03:19.331Z,100282.09
2018-04-14T04:05:46.770Z,100282.17
2018-04-14T04:08:14.490Z,100287.50
2018-04-14T04:10:41.949Z,100285.50
2018-04-14T04:13:09.675Z,100286.95
2018-04-14T04:15:37.151Z,100292.13
2018-04-14T04:18:04.609Z,100292.23
2018-04-14T04:20:56.791Z,100295.42
2018-04-14T04:23:36.030Z,100301.89
2018-04-14T04:26:03.522Z,100311.22
2018-04-14T04:28:30.976Z,100314.48
2018-04-14T04:30:58.477Z,100319.14
2018-04-14T04:33:25.932Z,100322.62
2018-04-14T04:35:53.387Z,100329.02
2018-04-14T04:38:20.846Z,100330.80
2018-04-14T04:40:48.407Z,100333.76
2018-04-14T04:43:15.908Z,100342.16
2018-04-14T04:45:43.413Z,100347.48
2018-04-14T04:48:10.942Z,100344.82
2018-04-14T04:50:38.417Z,100348.38
2018-04-14T04:53:15.533Z,100351.86
2018-04-14T04:55:43.019Z,100356.36
2018-04-14T04:58:11.141Z,100364.73
2018-04-14T05:00:38.721Z,100367.47
2018-04-14T05:05:58.789Z,100364.80
2018-04-14T05:08:26.258Z,100367.13
2018-04-14T05:10:53.703Z,100365.36
2018-04-14T05:13:21.201Z,100365.47
2018-04-14T05:15:48.623Z,100369.69
2018-04-14T05:18:16.089Z,100374.58
2018-04-14T05:20:43.542Z,100375.66
2018-04-14T05:23:15.941Z,100380.46
2018-04-14T05:25:43.379Z,100382.39
2018-04-14T05:28:10.876Z,100386.67
2018-04-14T05:30:38.383Z,100393.86
2018-04-14T05:33:05.872Z,100389.56
2018-04-14T05:35:33.346Z,100394.89
2018-04-14T05:38:00.833Z,100402.45
2018-04-14T05:40:28.343Z,100405.63
2018-04-14T05:42:55.871Z,100425.36
2018-04-14T05:45:23.349Z,100421.36
2018-04-14T05:47:51.145Z,100423.03
2018-04-14T05:50:18.710Z,100437.95
2018-04-14T05:52:46.163Z,100431.95
2018-04-14T05:55:13.665Z,100447.84
2018-04-14T05:57:41.143Z,100450.61
2018-04-14T06:00:08.842Z,100448.44
2018-04-14T06:02:36.291Z,100452.52
2018-04-14T06:05:03.770Z,100444.66
2018-04-14T06:07:31.234Z,100455.84
2018-04-14T06:09:58.730Z,100452.95
2018-04-14T06:12:26.195Z,100457.73
2018-04-14T06:14:53.723Z,100463.32
2018-04-14T06:17:21.164Z,100466.28
2018-04-14T06:19:48.681Z,100469.35
2018-04-14T06:22:16.224Z,100471.69
2018-04-14T06:24:43.708Z,100474.61
2018-04-14T06:27:11.234Z,100478.20
2018-04-14T06:29:38.832Z,100478.17
2018-04-14T06:32:06.424Z,100487.32
2018-04-14T06:34:33.902Z,100484.80
2018-04-14T06:37:01.404Z,100489.52
2018-04-14T06:39:28.897Z,100489.77
2018-04-14T06:41:56.417Z,100494.00
2018-04-14T06:44:23.916Z,100497.44
2018-04-14T06:46:51.368Z,100503.56
2018-04-14T06:49:18.872Z,100509.63
2018-04-14T06:51:46.335Z,100515.97
2018-04-14T06:54:13.871Z,100513.67
2018-04-14T06:56:41.410Z,100510.67
2018-04-14T06:59:08.941Z,100508.52
2018-04-14T07:01:36.522Z,100499.37
2018-04-14T07:04:04.071Z,100500.77
2018-04-14T07:06:31.607Z,100516.00
2018-04-14T07:08:59.200Z,100511.77
2018-04-14T07:11:26.714Z,100510.73
2018-04-14T07:13:54.284Z,100516.65
2018-04-14T07:16:21.784Z,100516.83
2018-04-14T07:18:49.313Z,100522.72
2018-04-14T07:21:16.790Z,100521.50
2018-04-14T07:23:53.972Z,100524.30
2018-04-14T07:26:21.483Z,100533.81
2018-04-14T07:28:49.020Z,100537.75
2018-04-14T07:31:16.494Z,100541.95
2018-04-14T07:33:43.966Z,100544.42
2018-04-14T07:36:11.468Z,100540.09
2018-04-14T07:38:39.192Z,100535.63
2018-04-14T07:41:06.698Z,100536.34
2018-04-14T07:43:48.471Z,100539.66
2018-04-14T07:46:15.949Z,100535.71
2018-04-14T07:48:43.392Z,100540.10
2018-04-14T07:51:11.137Z,100535.98
2018-04-14T07:53:38.983Z,100538.04
2018-04-14T07:56:06.531Z,100535.64
2018-04-14T07:58:34.319Z,100546.63
2018-04-14T08:01:01.897Z,100545.47
2018-04-14T08:03:30.403Z,100541.80
2018-04-14T08:05:57.974Z,100536.48
2018-04-14T08:08:25.657Z,100543.30
2018-04-14T08:10:53.224Z,100554.52
2018-04-14T08:13:21.884Z,100556.09
2018-04-14T08:15:49.650Z,100556.84
2018-04-14T08:18:18.933Z,100560.69
2018-04-14T08:20:46.682Z,100565.76
2018-04-14T08:23:15.146Z,100565.98
2018-04-14T08:25:42.611Z,100568.47
2018-04-14T08:28:10.089Z,100574.05
2018-04-14T08:30:37.591Z,100568.53
2018-04-14T08:33:05.046Z,100579.50
2018-04-14T08:35:32.502Z,100580.46
2018-04-14T08:37:59.979Z,100585.78
2018-04-14T08:40:27.496Z,100576.83
2018-04-14T08:42:54.993Z,100575.14
2018-04-14T08:45:22.445Z,100569.55
2018-04-14T08:47:49.920Z,100579.11
2018-04-14T08:50:17.404Z,100572.75
2018-04-14T08:52:44.857Z,100577.82
2018-04-14T08:55:12.362Z,100572.98
2018-04-14T08:57:39.813Z,100569.80
2018-04-14T09:00:07.252Z,100576.94
2018-04-14T09:02:34.750Z,100568.92
2018-04-14T09:05:02.202Z,100578.48
2018-04-14T09:07:29.690Z,100573.95
2018-04-14T09:09:57.166Z,100585.22
2018-04-14T09:12:24.654Z,100575.91
2018-04-14T09:14:52.154Z,100580.90
2018-04-14T09:17:19.700Z,100582.09
2018-04-14T09:19:47.146Z,100570.02
2018-04-14T09:22:14.656Z,100577.91
2018-04-14T09:24:42.108Z,100581.54
2018-04-14T09:27:09.598Z,100576.41
2018-04-14T09:29:37.050Z,100571.66
2018-04-14T09:32:05.376Z,100585.38
2018-04-14T09:34:32.984Z,100585.41
2018-04-14T09:37:00.470Z,100575.75
2018-04-14T09:39:27.945Z,100577.78
2018-04-14T09:41:55.426Z,100574.98
2018-04-14T09:44:22.876Z,100570.04
2018-04-14T09:46:50.434Z,100580.50
2018-04-14T09:49:17.918Z,100577.73
2018-04-14T09:51:45.464Z,100578.30
2018-04-14T09:54:12.968Z,100578.84
2018-04-14T09:56:40.466Z,100580.25
2018-04-14T09:59:08.043Z,100580.91
2018-04-14T10:01:35.528Z,100573.80
2018-04-14T10:04:03.177Z,100577.27
2018-04-14T10:06:30.638Z,100574.68
2018-04-14T10:08:58.222Z,100575.02
2018-04-14T10:11:25.680Z,100568.30
2018-04-14T10:13:53.150Z,100574.70
2018-04-14T10:16:20.652Z,100574.64
2018-04-14T10:18:48.067Z,100565.16
2018-04-14T10:21:16.434Z,100568.00
2018-04-14T10:23:43.957Z,100561.23
2018-04-14T10:26:11.434Z,100570.75
2018-04-14T10:28:39.038Z,100572.67
2018-04-14T10:31:06.561Z,100564.17
2018-04-14T10:33:34.128Z,100565.06
2018-04-14T10:36:01.604Z,100558.68
2018-04-14T10:38:29.217Z,100561.59
2018-04-14T10:40:56.830Z,100557.18
2018-04-14T10:43:24.450Z,100559.09
2018-04-14T10:45:51.895Z,100557.11
2018-04-14T10:48:19.347Z,100568.20
2018-04-14T10:50:46.848Z,100577.97
2018-04-14T10:53:14.361Z,100564.64
2018-04-14T10:55:41.855Z,100581.36
2018-04-14T10:58:09.354Z,100575.08
2018-04-14T11:00:36.821Z,100563.47
2018-04-14T11:03:04.298Z,100575.59
2018-04-14T11:05:31.800Z,100571.70
2018-04-14T11:07:59.384Z,100561.70
2018-04-14T11:10:26.872Z,100557.41
2018-04-14T11:12:54.384Z,100564.80
2018-04-14T11:15:21.892Z,100562.72
2018-04-14T11:17:49.377Z,100562.25
2018-04-14T11:20:16.868Z,100555.20
2018-04-14T11:22:43.895Z,100556.39
2018-04-14T11:25:10.890Z,100556.30
2018-04-14T11:27:38.346Z,100555.16
2018-04-14T11:30:05.844Z,100543.28
2018-04-14T11:32:33.300Z,100556.58
2018-04-14T11:35:00.762Z,100558.16
2018-04-14T11:37:28.223Z,100555.92
2018-04-14T11:39:55.692Z,100559.40
2018-04-14T11:42:23.168Z,100554.89
2018-04-14T11:44:50.201Z,100551.47
2018-04-14T11:47:17.657Z,100549.16
2018-04-14T11:49:45.167Z,100557.36
2018-04-14T11:52:24.575Z,100558.13
2018-04-14T11:54:52.596Z,100569.49
2018-04-14T11:57:20.868Z,100567.17
2018-04-14T11:59:49.758Z,100567.78
2018-04-14T12:02:17.398Z,100580.27
2018-04-14T12:04:45.021Z,100571.77
2018-04-14T12:07:12.575Z,100579.40
2018-04-14T12:09:40.266Z,100576.70
2018-04-14T12:12:07.876Z,100576.66
2018-04-14T12:14:35.335Z,100584.27
2018-04-14T12:17:02.800Z,100581.78
2018-04-14T12:19:30.277Z,100578.70
2018-04-14T12:21:57.788Z,100585.70
2018-04-14T12:24:25.325Z,100580.55
2018-04-14T12:26:52.789Z,100581.69
2018-04-14T12:29:20.309Z,100598.08
2018-04-14T12:31:47.784Z,100591.56
2018-04-14T12:34:15.261Z,100584.92
2018-04-14T12:36:42.707Z,100580.81
2018-04-14T12:39:10.171Z,100575.58
2018-04-14T12:41:37.676Z,100585.91
2018-04-14T12:44:05.263Z,100579.48
2018-04-14T12:46:32.737Z,100581.48
2018-04-14T12:49:00.306Z,100585.77
2018-04-14T12:51:27.794Z,100586.67
2018-04-14T12:53:55.279Z,100597.05
2018-04-14T12:56:22.830Z,100594.52
2018-04-14T12:58:50.336Z,100579.80
2018-04-14T13:01:17.791Z,100594.03
2018-04-14T13:03:45.631Z,100579.42
2018-04-14T13:06:13.099Z,100569.14
2018-04-14T13:08:40.881Z,100582.61
2018-04-14T13:11:08.393Z,100578.60
2018-04-14T13:13:35.916Z,100577.94
2018-04-14T13:16:04.530Z,100579.88
2018-04-14T13:18:32.056Z,100567.52
2018-04-14T13:20:59.577Z,100569.95
2018-04-14T13:23:27.057Z,100583.50
2018-04-14T13:25:54.611Z,100558.42
2018-04-14T13:28:22.091Z,100572.84
2018-04-14T13:30:49.619Z,100571.37
2018-04-14T13:33:17.202Z,100576.14
2018-04-14T13:35:45.323Z,100567.89
2018-04-14T13:38:14.149Z,100571.97
2018-04-14T13:40:41.721Z,100575.03
2018-04-14T13:43:09.240Z,100566.39
2018-04-14T13:45:36.711Z,100569.36
2018-04-14T13:48:04.232Z,100571.33
2018-04-14T13:50:31.771Z,100559.13
2018-04-14T13:52:59.324Z,100564.44
2018-04-14T13:55:26.803Z,100555.75
2018-04-14T13:57:54.309Z,100571.77
2018-04-14T14:00:21.754Z,100563.02
2018-04-14T14:02:54.178Z,100565.73
2018-04-14T14:05:21.684Z,100559.19
2018-04-14T14:07:49.234Z,100558.67
2018-04-14T14:10:17.566Z,100551.22
2018-04-14T14:12:45.147Z,100558.47
2018-04-14T14:15:13.067Z,100558.61
2018-04-14T14:17:40.605Z,100553.35
2018-04-14T14:20:08.156Z,100561.59
2018-04-14T14:22:40.161Z,100551.47
2018-04-14T14:25:07.783Z,100549.13
2018-04-14T14:27:35.781Z,100560.27
2018-04-14T14:30:03.295Z,100555.59
2018-04-14T14:32:30.898Z,100555.50
2018-04-14T14:34:58.386Z,100557.00
2018-04-14T14:37:25.873Z,100559.48
2018-04-14T14:39:53.402Z,100554.96
2018-04-14T14:42:20.988Z,100553.75
2018-04-14T14:44:48.584Z,100559.47
2018-04-14T14:47:16.148Z,100553.68
2018-04-14T14:49:43.625Z,100558.34
2018-04-14T14:52:25.480Z,100557.69
2018-04-14T14:54:53.006Z,100554.44
2018-04-14T14:57:20.595Z,100554.20
2018-04-14T14:59:48.102Z,100551.28
2018-04-14T15:05:08.872Z,100555.91
2018-04-14T15:07:36.517Z,100555.22
2018-04-14T15:10:04.037Z,100555.73
2018-04-14T15:12:31.531Z,100557.88
2018-04-14T15:14:59.079Z,100557.95
2018-04-14T15:17:26.691Z,100557.47
2018-04-14T15:19:54.220Z,100551.45
2018-04-14T15:22:26.733Z,100554.94
2018-04-14T15:24:54.220Z,100553.13
2018-04-14T15:27:21.728Z,100558.82
2018-04-14T15:29:49.555Z,100552.18
2018-04-14T15:32:17.177Z,100554.19
2018-04-14T15:34:44.691Z,100547.67
2018-04-14T15:37:12.181Z,100555.95
2018-04-14T15:39:39.671Z,100550.95
2018-04-14T15:42:07.250Z,100552.70
2018-04-14T15:44:35.500Z,100553.00
2018-04-14T15:47:03.062Z,100548.65
2018-04-14T15:49:30.594Z,100551.55
2018-04-14T15:51:58.936Z,100549.79
2018-04-14T15:54:26.763Z,100557.29
2018-04-14T15:56:54.226Z,100561.36
2018-04-14T15:59:21.843Z,100558.11
2018-04-14T16:01:49.452Z,100565.63
2018-04-14T16:04:16.985Z,100559.31
2018-04-14T16:06:44.550Z,100565.34
2018-04-14T16:09:12.119Z,100555.11
2018-04-14T16:11:39.636Z,100558.83
2018-04-14T16:14:07.164Z,100559.67
2018-04-14T16:16:34.856Z,100558.70
2018-04-14T16:19:02.644Z,100555.33
2018-04-14T16:21:30.150Z,100553.17
2018-04-14T16:29:44.057Z,100553.73
2018-04-14T16:32:12.118Z,100550.82
2018-04-14T16:34:40.003Z,100545.81
2018-04-14T16:37:07.677Z,100549.20
2018-04-14T16:39:35.401Z,100548.30
2018-04-14T16:42:03.135Z,100541.58
2018-04-14T16:44:30.960Z,100540.95
2018-04-14T16:46:58.456Z,100540.70
2018-04-14T16:49:26.332Z,100539.86
2018-04-14T16:51:53.858Z,100530.01
2018-04-14T16:54:21.395Z,100527.88
2018-04-14T16:56:48.947Z,100523.05
2018-04-14T16:59:16.582Z,100525.89
2018-04-14T17:01:44.089Z,100523.95
2018-04-14T17:04:11.620Z,100523.17
2018-04-14T17:06:39.106Z,100528.00
2018-04-14T17:09:06.616Z,100525.30
2018-04-14T17:11:34.122Z,100521.23
2018-04-14T17:14:01.627Z,100522.94
2018-04-14T17:16:29.168Z,100517.28
2018-04-14T17:18:56.672Z,100517.64
2018-04-14T17:21:24.283Z,100512.47
2018-04-14T17:23:51.850Z,100514.91
2018-04-14T17:26:19.378Z,100517.69
2018-04-14T17:28:46.965Z,100518.23
2018-04-14T17:31:14.450Z,100514.93
2018-04-14T17:33:42.034Z,100519.03
2018-04-14T17:36:09.592Z,100518.25
2018-04-14T17:38:37.215Z,100521.17
2018-04-14T17:41:04.737Z,100520.99
2018-04-14T17:43:32.296Z,100518.17
2018-04-14T17:45:59.779Z,100527.49
2018-04-14T17:48:27.415Z,100526.89
2018-04-14T17:50:54.988Z,100529.13
2018-04-14T17:53:22.838Z,100529.80
2018-04-14T17:55:50.300Z,100540.70
2018-04-14T17:58:17.824Z,100538.34
2018-04-14T18:00:45.320Z,100540.52
2018-04-14T18:03:12.906Z,100541.91
2018-04-14T18:05:40.737Z,100541.98
2018-04-14T18:08:08.292Z,100543.38
2018-04-14T18:10:35.916Z,100549.75
2018-04-14T18:13:03.432Z,100549.92
2018-04-14T18:15:30.995Z,100551.61
2018-04-14T18:17:58.538Z,100555.02
2018-04-14T18:20:26.476Z,100554.72
2018-04-14T18:22:54.008Z,100556.78
2018-04-14T18:25:21.523Z,100562.51
2018-04-14T18:27:49.082Z,100567.13
2018-04-14T18:30:16.573Z,100566.25
2018-04-14T18:32:44.072Z,100570.73
2018-04-14T18:35:11.645Z,100571.24
2018-04-14T18:37:39.165Z,100565.31
2018-04-14T18:40:06.675Z,100566.13
2018-04-14T18:42:34.151Z,100570.44
2018-04-14T18:45:01.834Z,100574.67
2018-04-14T18:47:29.313Z,100573.27
2018-04-14T18:49:56.995Z,100576.72
2018-04-14T18:52:24.543Z,100574.73
2018-04-14T18:54:52.344Z,100576.19
2018-04-14T18:57:19.866Z,100578.64
2018-04-14T18:59:48.131Z,100579.48
2018-04-14T19:02:15.795Z,100585.20
2018-04-14T19:04:43.368Z,100582.98
2018-04-14T19:07:10.832Z,100581.36
2018-04-14T19:09:38.409Z,100584.42
2018-04-14T19:12:05.951Z,100585.66
2018-04-14T19:14:33.509Z,100588.73
2018-04-14T19:17:01.071Z,100597.31
2018-04-14T19:19:28.607Z,100598.52
2018-04-14T19:21:56.504Z,100594.97
2018-04-14T19:24:23.988Z,100599.52
2018-04-14T19:26:51.624Z,100598.80
2018-04-14T19:29:19.273Z,100593.30
2018-04-14T19:31:46.824Z,100595.00
2018-04-14T19:34:14.988Z,100601.52
2018-04-14T19:36:42.696Z,100602.63
2018-04-14T19:39:10.416Z,100597.26
2018-04-14T19:41:37.960Z,100594.59
2018-04-14T19:44:05.503Z,100595.75
2018-04-14T19:46:33.112Z,100601.28
2018-04-14T19:49:00.617Z,100600.97
2018-04-14T19:51:28.173Z,100593.55
2018-04-14T19:53:55.737Z,100595.36
2018-04-14T19:56:23.265Z,100599.12
2018-04-14T19:58:50.726Z,100601.51
2018-04-14T20:01:18.210Z,100600.11
2018-04-14T20:03:45.742Z,100602.28
2018-04-14T20:06:13.285Z,100597.06
2018-04-14T20:08:40.917Z,100602.77
2018-04-14T20:11:08.418Z,100599.42
2018-04-14T20:13:35.963Z,100597.22
2018-04-14T20:16:03.535Z,100594.28
2018-04-14T20:18:31.109Z,100597.93
2018-04-14T20:20:58.584Z,100595.25
2018-04-14T20:23:26.120Z,100590.84
2018-04-14T20:25:53.575Z,100592.19
2018-04-14T20:28:21.106Z,100595.04
2018-04-14T20:30:48.567Z,100594.80
2018-04-14T20:33:16.101Z,100595.50
2018-04-14T20:35:43.636Z,100592.66
2018-04-14T20:38:11.188Z,100593.95
2018-04-14T20:40:38.671Z,100588.50
2018-04-14T20:43:06.152Z,100591.81
2018-04-14T20:45:33.744Z,100583.22
2018-04-14T20:48:01.269Z,100590.42
2018-04-14T20:50:28.740Z,100587.25
2018-04-14T20:53:16.335Z,100590.72
2018-04-14T20:55:43.858Z,100588.44
2018-04-14T20:58:11.306Z,100585.31
2018-04-14T21:00:38.841Z,100591.80
2018-04-14T21:03:16.011Z,100590.70
2018-04-14T21:05:43.578Z,100586.59
2018-04-14T21:08:11.135Z,100586.83
2018-04-14T21:10:38.595Z,100597.02
2018-04-14T21:13:06.112Z,100592.05
2018-04-14T21:15:33.596Z,100590.38
2018-04-14T21:18:01.139Z,100593.63
2018-04-14T21:20:28.604Z,100588.95
2018-04-14T21:23:05.733Z,100582.72
2018-04-14T21:25:33.253Z,100573.84
2018-04-14T21:28:00.746Z,100576.22
2018-04-14T21:30:28.210Z,100570.44
2018-04-14T21:32:55.704Z,100576.14
2018-04-14T21:35:23.206Z,100574.80
2018-04-14T21:37:51.006Z,100574.27
2018-04-14T21:40:19.115Z,100574.75
2018-04-14T21:42:46.683Z,100574.42
2018-04-14T21:45:15.805Z,100566.92
2018-04-14T21:47:43.423Z,100573.16
2018-04-14T21:50:10.995Z,100567.87
2018-04-14T21:52:38.561Z,100554.59
2018-04-14T21:55:06.027Z,100555.32
2018-04-14T21:57:33.530Z,100559.19
2018-04-14T22:00:01.085Z,100563.70
2018-04-14T22:02:28.642Z,100565.34
2018-04-14T22:04:56.111Z,100562.81
2018-04-14T22:07:23.565Z,100562.11
2018-04-14T22:09:51.067Z,100572.28
2018-04-14T22:12:18.533Z,100570.95
2018-04-14T22:14:46.026Z,100571.80
2018-04-14T22:17:13.522Z,100572.92
2018-04-14T22:19:41.087Z,100573.36
2018-04-14T22:22:08.605Z,100571.73
2018-04-14T22:24:36.366Z,100569.27
2018-04-14T22:27:03.828Z,100566.37
2018-04-14T22:29:31.898Z,100563.36
2018-04-14T22:32:00.280Z,100565.55
2018-04-14T22:34:27.760Z,100560.60
2018-04-14T22:36:55.225Z,100562.31
2018-04-14T22:39:22.719Z,100557.59
2018-04-14T22:41:50.549Z,100550.95
2018-04-14T22:44:18.481Z,100548.09
2018-04-14T22:46:45.955Z,100551.75
2018-04-14T22:49:13.418Z,100554.44
2018-04-14T22:51:40.928Z,100542.73
2018-04-14T22:54:08.413Z,100541.63
2018-04-14T22:56:35.923Z,100540.12
2018-04-14T22:59:03.501Z,100541.70
2018-04-14T23:01:30.989Z,100535.72
2018-04-14T23:03:58.461Z,100537.59
2018-04-14T23:06:25.970Z,100543.28
2018-04-14T23:08:54.425Z,100538.55
2018-04-14T23:11:23.668Z,100537.50
2018-04-14T23:13:51.185Z,100543.23
2018-04-14T23:16:18.725Z,100542.77
2018-04-14T23:18:46.259Z,100538.91
2018-04-14T23:21:13.825Z,100537.08
2018-04-14T23:23:41.371Z,100533.61
2018-04-14T23:26:08.930Z,100537.92
2018-04-14T23:28:37.043Z,100528.39
2018-04-14T23:31:04.629Z,100526.88
2018-04-14T23:33:37.052Z,100524.73
2018-04-14T23:36:04.513Z,100522.06
2018-04-14T23:38:31.963Z,100518.47
2018-04-14T23:40:59.514Z,100511.78
2018-04-14T23:43:26.980Z,100518.62
2018-04-14T23:45:54.450Z,100513.98
2018-04-14T23:48:21.930Z,100513.89
2018-04-14T23:50:49.441Z,100503.47
2018-04-14T23:53:16.982Z,100495.24
2018-04-14T23:55:45.275Z,100494.22
2018-04-14T23:58:13.210Z,100487.66
